Terminal Aerodrome Forecast
Issued by NWS

Home | Current Version | Previous Version | Text Only | Print | Product List | Glossary On
Versions: 1 2 3 4 5 6 7 8 9 10 11 12 13 14 15 16
000
FTUS42 KMLB 041135
TAFISM
TAF
KISM 041135Z 0412/0512 00000KT P6SM SKC
      TEMPO 0412/0413 3SM BR SCT003
     FM041500 17009KT P6SM SCT010 SCT035
     FM050300 16003KT P6SM FEW040=

USA.gov is the U.S. government's official web portal to all federal, state and local government web resources and services.